Time;durP1;ratioP1;P1;durP2;ratioP2;P2;SDS_P1;SDS_P2;PMS_P1;PMS_P2;Temp;Humidity;BMP_temperature;BMP_pressure;BME280_temperature;BME280_humidity;BME280_pressure;Samples;Min_cycle;Max_cycle;Signal;HPM_P1;HPM_P2
2022/01/15 00:00:36;;;;;;;33.63;19.50;;;-0.60;99.90;;;;;;4981528;28;20176;-81
2022/01/15 00:03:08;;;;;;;37.27;20.93;;;-0.50;99.90;;;;;;4986252;28;20180;-82
2022/01/15 00:05:34;;;;;;;37.40;21.20;;;-0.60;99.90;;;;;;4986668;28;20254;-80
2022/01/15 00:08:02;;;;;;;41.07;22.27;;;-0.60;99.90;;;;;;4986143;28;20555;-80
2022/01/15 00:10:29;;;;;;;31.63;20.07;;;-0.60;99.90;;;;;;4986035;28;20191;-81
2022/01/15 00:13:00;;;;;;;38.30;20.77;;;-0.60;99.90;;;;;;4985501;28;20704;-80
2022/01/15 00:15:33;;;;;;;36.77;20.87;;;-0.70;99.90;;;;;;4985831;28;20238;-80
2022/01/15 00:18:04;;;;;;;43.10;22.43;;;-0.90;99.90;;;;;;4985216;28;20177;-81
2022/01/15 00:20:30;;;;;;;41.47;22.00;;;-0.90;99.90;;;;;;4985457;28;20206;-80
2022/01/15 00:22:58;;;;;;;45.93;22.23;;;-1.10;99.90;;;;;;4984949;28;20188;-80
2022/01/15 00:25:26;;;;;;;40.63;22.33;;;-1.30;99.90;;;;;;4985444;28;20555;-80
2022/01/15 00:27:52;;;;;;;36.70;20.37;;;-1.40;99.90;;;;;;4984697;28;20691;-80
2022/01/15 00:30:18;;;;;;;42.70;21.87;;;-1.40;99.90;;;;;;4984997;28;20180;-80
2022/01/15 00:32:45;;;;;;;41.50;22.17;;;-1.40;99.90;;;;;;5000067;28;20234;-80
2022/01/15 00:35:13;;;;;;;40.10;20.87;;;-1.30;99.90;;;;;;4976449;28;20270;-82
2022/01/15 00:37:39;;;;;;;35.17;19.73;;;-1.30;99.90;;;;;;4988248;28;20178;-79
2022/01/15 00:40:08;;;;;;;36.60;20.30;;;-1.20;99.90;;;;;;4986715;28;20207;-81
2022/01/15 00:42:36;;;;;;;38.60;20.47;;;-1.10;99.90;;;;;;4969194;28;20183;-81
2022/01/15 00:45:05;;;;;;;35.43;19.37;;;-1.00;99.90;;;;;;4985369;28;20588;-81
2022/01/15 00:47:33;;;;;;;33.43;19.47;;;-1.00;99.90;;;;;;4968062;28;20678;-80
2022/01/15 00:50:00;;;;;;;33.20;18.70;;;-0.90;99.90;;;;;;4984499;28;20203;-80
2022/01/15 00:52:27;;;;;;;36.30;18.63;;;-0.90;99.90;;;;;;4984203;28;20248;-81
2022/01/15 00:54:53;;;;;;;31.27;18.87;;;-0.80;99.90;;;;;;4984562;28;20222;-81
2022/01/15 00:57:19;;;;;;;31.40;18.77;;;-0.80;99.90;;;;;;4983625;28;20598;-80
2022/01/15 00:59:45;;;;;;;38.40;19.73;;;-0.80;99.90;;;;;;4966593;28;20204;-80
2022/01/15 01:02:10;;;;;;;34.80;19.67;;;-0.80;99.90;;;;;;4982737;28;20183;-80
2022/01/15 01:04:36;;;;;;;30.83;17.97;;;-0.90;99.90;;;;;;4982806;28;20238;-80
2022/01/15 01:07:02;;;;;;;33.13;17.97;;;-0.80;99.90;;;;;;4982251;28;20188;-81
2022/01/15 01:09:42;;;;;;;35.87;18.47;;;-0.80;99.90;;;;;;4963368;28;20694;-81
2022/01/15 01:12:24;;;;;;;34.40;18.30;;;-0.80;99.90;;;;;;4965115;28;20204;-81
2022/01/15 01:20:27;;;;;;;28.80;17.30;;;-0.80;99.90;;;;;;4985629;28;20183;-80
2022/01/15 01:22:57;;;;;;;29.23;16.30;;;-0.80;99.90;;;;;;4988479;28;20186;-80
2022/01/15 01:25:30;;;;;;;28.93;17.10;;;-0.80;99.90;;;;;;4995505;28;20211;-80
2022/01/15 01:28:07;;;;;;;32.67;17.50;;;-0.90;99.90;;;;;;4984210;28;20187;-81
2022/01/15 01:31:38;;;;;;;28.23;16.63;;;-0.90;99.90;;;;;;4983909;28;20202;-81
2022/01/15 01:33:33;;;;;;;30.27;16.80;;;-0.90;99.90;;;;;;4954803;28;20191;-80
2022/01/15 01:38:36;;;;;;;26.13;15.17;;;-1.10;99.90;;;;;;4985299;28;20657;-80
2022/01/15 01:41:04;;;;;;;29.10;15.77;;;-1.00;99.90;;;;;;4984830;28;20218;-81
2022/01/15 01:48:44;;;;;;;28.27;15.90;;;-1.10;99.90;;;;;;4983714;28;20218;-81
2022/01/15 01:51:24;;;;;;;29.30;17.07;;;-1.10;99.90;;;;;;4985578;28;20223;-81
2022/01/15 01:53:50;;;;;;;32.83;16.63;;;-1.20;99.90;;;;;;4995672;28;20179;-81
2022/01/15 01:56:17;;;;;;;32.07;17.33;;;-1.20;99.90;;;;;;4987024;28;20195;-82
2022/01/15 01:58:43;;;;;;;30.70;17.70;;;-1.40;99.90;;;;;;4990375;28;20204;-82
2022/01/15 02:01:08;;;;;;;31.13;18.03;;;-1.60;99.90;;;;;;4969250;28;20655;-81
2022/01/15 02:03:35;;;;;;;31.43;16.60;;;-1.60;99.90;;;;;;4968426;28;20183;-81
2022/01/15 02:06:01;;;;;;;30.13;18.17;;;-1.50;99.90;;;;;;4967370;28;20185;-82
2022/01/15 02:08:26;;;;;;;29.43;18.77;;;-1.60;99.90;;;;;;4966748;28;20300;-83
2022/01/15 02:10:52;;;;;;;29.73;17.40;;;-1.70;99.90;;;;;;4983533;28;20278;-81
2022/01/15 02:13:18;;;;;;;31.47;16.87;;;-1.80;99.90;;;;;;4965961;28;20188;-82
2022/01/15 02:15:44;;;;;;;31.37;17.53;;;-1.80;99.90;;;;;;4983946;28;20187;-83
2022/01/15 02:18:11;;;;;;;34.03;17.57;;;-1.90;99.90;;;;;;4965503;28;20183;-81
2022/01/15 02:21:01;;;;;;;28.97;17.17;;;-1.90;99.90;;;;;;4983549;28;20198;-80
2022/01/15 02:23:33;;;;;;;32.83;17.00;;;-1.80;99.90;;;;;;4982794;28;20197;-81
2022/01/15 02:26:02;;;;;;;30.73;17.87;;;-1.80;99.90;;;;;;4964071;28;20184;-81
2022/01/15 02:28:33;;;;;;;30.67;17.27;;;-1.80;99.90;;;;;;4983480;28;20209;-81
2022/01/15 02:31:06;;;;;;;30.37;16.30;;;-1.70;99.90;;;;;;4983851;28;20211;-81
2022/01/15 02:33:33;;;;;;;29.90;17.17;;;-1.60;99.90;;;;;;4965966;28;20606;-81
2022/01/15 02:35:59;;;;;;;34.17;16.40;;;-1.50;99.90;;;;;;4983856;28;20187;-81
2022/01/15 02:38:26;;;;;;;33.73;16.50;;;-0.80;99.90;;;;;;4965084;28;20210;-81
2022/01/15 02:40:52;;;;;;;25.20;16.03;;;-1.40;99.90;;;;;;4983695;28;20219;-81
2022/01/15 02:43:21;;;;;;;29.30;16.03;;;-1.40;99.90;;;;;;4982128;28;20223;-81
2022/01/15 02:45:55;;;;;;;25.33;14.87;;;-1.30;99.90;;;;;;4982914;28;20187;-82
2022/01/15 02:48:26;;;;;;;24.27;14.37;;;-1.30;99.90;;;;;;4965405;28;20278;-81
2022/01/15 02:50:52;;;;;;;24.10;15.20;;;-1.30;99.90;;;;;;4982331;28;20293;-83
2022/01/15 02:53:18;;;;;;;23.17;14.47;;;-1.10;99.90;;;;;;4982507;28;20183;-81
2022/01/15 02:55:46;;;;;;;26.63;14.10;;;-1.20;99.90;;;;;;4965587;28;20191;-82
2022/01/15 02:58:12;;;;;;;22.93;14.30;;;-1.30;99.90;;;;;;4983170;28;20645;-82
2022/01/15 03:00:38;;;;;;;24.37;14.63;;;-1.20;99.90;;;;;;4981312;28;20215;-81
2022/01/15 03:03:04;;;;;;;30.23;15.73;;;-1.30;99.90;;;;;;4980533;28;20184;-81
2022/01/15 03:05:29;;;;;;;25.83;15.07;;;-1.30;99.90;;;;;;4981529;28;20180;-81
2022/01/15 03:07:55;;;;;;;23.07;14.63;;;-1.30;99.90;;;;;;4981739;28;20199;-82
2022/01/15 03:10:21;;;;;;;24.53;14.50;;;-1.30;99.90;;;;;;4982187;28;20188;-81
2022/01/15 03:12:46;;;;;;;19.70;13.47;;;-1.30;99.90;;;;;;4982185;28;20178;-82
2022/01/15 03:15:18;;;;;;;27.00;15.77;;;-1.30;99.90;;;;;;4964643;28;20615;-82
2022/01/15 03:17:44;;;;;;;27.20;16.50;;;-1.20;99.90;;;;;;4981094;28;20204;-81
2022/01/15 03:20:10;;;;;;;24.50;16.77;;;-1.60;99.90;;;;;;4976563;28;20200;-80
2022/01/15 03:22:35;;;;;;;28.50;16.70;;;-1.70;99.90;;;;;;4974792;28;20210;-82
2022/01/15 03:25:01;;;;;;;29.80;16.37;;;-1.90;99.90;;;;;;4963896;28;20195;-81
2022/01/15 03:27:27;;;;;;;28.30;15.80;;;-2.00;99.90;;;;;;4962503;28;20184;-81
2022/01/15 03:29:53;;;;;;;26.43;15.40;;;-2.00;99.90;;;;;;4981724;28;20210;-81
2022/01/15 03:32:19;;;;;;;24.37;14.97;;;-1.90;99.90;;;;;;4963822;28;20350;-81
2022/01/15 03:34:46;;;;;;;20.70;12.73;;;-1.80;99.90;;;;;;4979404;28;20184;-81
2022/01/15 03:37:12;;;;;;;18.87;13.00;;;-1.70;99.90;;;;;;4979989;28;20672;-82
2022/01/15 03:39:38;;;;;;;21.00;12.70;;;-1.70;99.90;;;;;;4981678;28;20337;-81
2022/01/15 03:42:11;;;;;;;24.03;14.10;;;-1.60;99.90;;;;;;4980553;28;20196;-81
2022/01/15 03:44:42;;;;;;;22.50;11.93;;;-1.60;99.90;;;;;;4981155;28;20175;-81
2022/01/15 03:47:09;;;;;;;24.67;14.63;;;-1.60;99.90;;;;;;4964017;28;20205;-82
2022/01/15 03:49:36;;;;;;;24.70;13.33;;;-1.70;99.90;;;;;;4963109;28;20207;-81
2022/01/15 03:52:02;;;;;;;24.97;15.60;;;-1.80;99.90;;;;;;4979925;28;20229;-82
2022/01/15 03:54:27;;;;;;;23.90;15.00;;;-1.90;99.90;;;;;;4963963;28;20176;-81
2022/01/15 03:56:53;;;;;;;24.73;14.67;;;-2.00;99.90;;;;;;4980955;28;20760;-81
2022/01/15 03:59:19;;;;;;;21.10;13.73;;;-2.00;99.90;;;;;;4983422;28;20246;-81
2022/01/15 04:01:45;;;;;;;21.30;13.47;;;-2.10;99.90;;;;;;4962943;28;20182;-80
2022/01/15 04:04:11;;;;;;;20.20;13.17;;;-2.10;99.90;;;;;;4962829;28;20187;-81
2022/01/15 04:06:36;;;;;;;24.73;14.37;;;-2.10;99.90;;;;;;4962311;28;20218;-82
2022/01/15 04:09:02;;;;;;;25.77;14.27;;;-2.20;99.90;;;;;;4962265;28;20214;-80
2022/01/15 04:11:28;;;;;;;23.63;13.30;;;-2.30;99.90;;;;;;4979416;28;20235;-81
2022/01/15 04:13:54;;;;;;;25.63;13.50;;;-2.40;99.90;;;;;;4979440;28;20206;-80
2022/01/15 04:16:20;;;;;;;21.37;12.87;;;-2.40;99.90;;;;;;4980783;28;20182;-80
2022/01/15 04:18:46;;;;;;;21.47;13.57;;;-2.40;99.90;;;;;;4980030;28;20209;-81
2022/01/15 04:21:13;;;;;;;21.40;13.80;;;-2.30;99.90;;;;;;4975294;28;20203;-80
2022/01/15 04:23:39;;;;;;;20.87;13.13;;;-2.30;99.90;;;;;;4980841;28;20190;-81
2022/01/15 04:26:05;;;;;;;24.33;13.73;;;-2.20;99.90;;;;;;4982955;28;20600;-81
2022/01/15 04:28:34;;;;;;;21.47;13.30;;;-2.30;99.90;;;;;;4983296;28;20617;-81
2022/01/15 04:31:06;;;;;;;21.47;12.63;;;-2.40;99.90;;;;;;4983069;28;20222;-81
2022/01/15 04:33:37;;;;;;;21.97;13.00;;;-2.50;99.90;;;;;;4980465;28;20190;-81
2022/01/15 04:36:07;;;;;;;21.50;12.80;;;-2.60;99.90;;;;;;4981473;28;20186;-81
2022/01/15 04:38:36;;;;;;;21.67;12.73;;;-2.40;99.90;;;;;;4981905;28;20206;-81
2022/01/15 04:41:03;;;;;;;21.20;13.13;;;-2.40;99.90;;;;;;4978803;28;20234;-81
2022/01/15 04:43:32;;;;;;;19.40;11.83;;;-1.90;99.90;;;;;;4983813;28;20168;-81
2022/01/15 04:45:57;;;;;;;20.80;12.03;;;-2.30;99.90;;;;;;4986173;28;20287;-81
2022/01/15 04:48:23;;;;;;;17.17;11.10;;;-2.40;99.90;;;;;;4980736;28;20241;-81
2022/01/15 04:50:49;;;;;;;18.60;11.27;;;-2.40;99.90;;;;;;4985267;28;20198;-80
2022/01/15 04:53:15;;;;;;;16.50;11.70;;;-2.50;99.90;;;;;;4985685;28;20199;-82
2022/01/15 04:55:41;;;;;;;17.43;10.13;;;-2.60;99.90;;;;;;4985307;28;20189;-81
2022/01/15 04:58:07;;;;;;;16.27;10.17;;;-2.60;99.90;;;;;;4983934;28;20209;-81
2022/01/15 05:00:34;;;;;;;15.57;10.03;;;-2.70;99.90;;;;;;4983246;28;20177;-81
2022/01/15 05:03:01;;;;;;;14.10;10.10;;;-2.70;99.90;;;;;;4984734;28;20276;-81
2022/01/15 05:05:28;;;;;;;16.17;10.67;;;-2.60;99.90;;;;;;4983486;28;20693;-81
2022/01/15 05:07:54;;;;;;;15.23;9.87;;;-2.70;99.90;;;;;;4982836;28;20181;-79
2022/01/15 05:10:25;;;;;;;16.80;10.40;;;-2.70;99.90;;;;;;4982269;28;20199;-81
2022/01/15 05:12:51;;;;;;;15.50;10.97;;;-2.80;99.90;;;;;;4984363;28;20581;-80
2022/01/15 05:15:18;;;;;;;12.57;9.47;;;-2.80;99.90;;;;;;4979589;28;20191;-82
2022/01/15 05:17:46;;;;;;;13.63;9.53;;;-2.80;99.90;;;;;;4992232;28;20201;-79
2022/01/15 05:20:16;;;;;;;14.50;9.77;;;-2.70;99.90;;;;;;4984038;28;20197;-81
2022/01/15 05:22:42;;;;;;;12.73;8.97;;;-2.80;99.90;;;;;;4966441;28;20185;-82
2022/01/15 05:25:09;;;;;;;15.37;9.13;;;-2.80;99.90;;;;;;4967012;28;20231;-82
2022/01/15 05:27:37;;;;;;;15.97;8.77;;;-2.60;99.90;;;;;;4966740;28;20182;-82
2022/01/15 05:30:06;;;;;;;13.90;9.57;;;-2.60;99.90;;;;;;4983309;28;20203;-80
2022/01/15 05:32:32;;;;;;;13.63;9.63;;;-2.80;99.90;;;;;;4982977;28;20242;-80
2022/01/15 05:34:57;;;;;;;14.90;10.07;;;-2.90;99.90;;;;;;4982892;28;20260;-79
2022/01/15 05:37:24;;;;;;;13.17;9.57;;;-2.80;99.90;;;;;;4964886;28;20225;-79
2022/01/15 05:39:50;;;;;;;14.03;9.07;;;-2.80;99.90;;;;;;4981224;28;20691;-79
2022/01/15 05:42:15;;;;;;;13.10;9.10;;;-2.70;99.90;;;;;;4982631;28;20196;-79
2022/01/15 05:44:41;;;;;;;14.43;9.53;;;-3.00;99.90;;;;;;4982630;28;20180;-80
2022/01/15 05:47:08;;;;;;;10.50;8.97;;;-3.00;99.90;;;;;;4982497;28;20204;-79
2022/01/15 05:49:34;;;;;;;15.70;9.43;;;-3.10;99.90;;;;;;4981736;28;20208;-79
2022/01/15 05:52:00;;;;;;;15.70;10.33;;;-3.00;99.90;;;;;;4982019;28;20210;-79
2022/01/15 05:54:25;;;;;;;16.60;10.13;;;-2.90;99.90;;;;;;4982400;28;20287;-81
2022/01/15 05:56:51;;;;;;;15.83;10.43;;;-2.80;99.90;;;;;;4982195;28;20191;-80
2022/01/15 05:59:17;;;;;;;15.77;9.63;;;-2.80;99.90;;;;;;4981543;28;20284;-80
2022/01/15 06:01:43;;;;;;;14.77;9.77;;;-2.90;99.90;;;;;;4982090;28;20196;-80
2022/01/15 06:04:08;;;;;;;13.63;9.27;;;-3.00;99.90;;;;;;4974942;28;20192;-79
2022/01/15 06:06:34;;;;;;;14.13;9.17;;;-2.90;99.90;;;;;;4967780;28;20181;-80
2022/01/15 06:09:00;;;;;;;12.53;9.33;;;-2.90;99.90;;;;;;4987780;28;20583;-80
2022/01/15 06:11:27;;;;;;;13.87;9.60;;;-3.00;99.90;;;;;;4982744;28;20309;-81
2022/01/15 06:13:52;;;;;;;12.67;9.03;;;-3.00;99.90;;;;;;4982824;28;20584;-80
2022/01/15 06:16:18;;;;;;;13.87;9.10;;;-3.20;99.90;;;;;;4982823;28;20228;-80
2022/01/15 06:18:44;;;;;;;12.20;9.53;;;-3.20;99.90;;;;;;4981707;28;20220;-80
2022/01/15 06:21:09;;;;;;;12.67;8.67;;;-3.20;99.90;;;;;;4981699;28;20237;-80
2022/01/15 06:23:35;;;;;;;15.07;9.53;;;-3.10;99.90;;;;;;4963875;28;20185;-80
2022/01/15 06:26:01;;;;;;;11.00;8.47;;;-3.10;99.90;;;;;;4980931;28;20195;-80
2022/01/15 06:28:26;;;;;;;16.33;8.30;;;-3.10;99.90;;;;;;4964243;28;20221;-81
2022/01/15 06:30:52;;;;;;;12.43;8.67;;;-3.10;99.90;;;;;;4981289;28;20205;-81
2022/01/15 06:33:18;;;;;;;16.37;8.13;;;-3.10;99.90;;;;;;4981645;28;20176;-80
2022/01/15 06:35:44;;;;;;;11.60;8.20;;;-3.20;99.90;;;;;;4963665;28;20766;-80
2022/01/15 06:38:09;;;;;;;12.43;8.40;;;-3.20;99.90;;;;;;4981604;28;20182;-80
2022/01/15 06:40:35;;;;;;;11.07;8.33;;;-3.20;99.90;;;;;;4964109;28;20181;-79
2022/01/15 06:43:02;;;;;;;11.70;8.07;;;-3.10;99.90;;;;;;4982627;28;20212;-80
2022/01/15 06:45:29;;;;;;;10.27;7.73;;;-3.10;99.90;;;;;;4981586;28;20182;-80
2022/01/15 06:47:54;;;;;;;9.80;7.57;;;-3.20;99.90;;;;;;4981670;28;20758;-79
2022/01/15 06:50:22;;;;;;;14.60;8.10;;;-3.20;99.90;;;;;;4981704;28;20240;-81
2022/01/15 06:52:48;;;;;;;9.23;7.47;;;-3.10;99.90;;;;;;4982015;28;20235;-81
2022/01/15 06:55:14;;;;;;;12.13;7.90;;;-3.20;99.90;;;;;;4982305;28;20185;-80
2022/01/15 06:57:39;;;;;;;12.27;7.60;;;-3.10;99.90;;;;;;4964499;28;20201;-81
2022/01/15 07:00:10;;;;;;;10.20;7.80;;;-3.10;99.90;;;;;;4964738;28;20202;-80
2022/01/15 07:02:36;;;;;;;9.10;7.60;;;-3.00;99.90;;;;;;4981919;28;20179;-80
2022/01/15 07:05:03;;;;;;;8.93;7.57;;;-2.90;99.90;;;;;;4982176;28;20550;-82
2022/01/15 07:07:29;;;;;;;12.10;7.60;;;-2.80;99.90;;;;;;4963661;28;20215;-81
2022/01/15 07:09:55;;;;;;;14.70;9.03;;;-2.70;99.90;;;;;;4982397;28;20205;-80
2022/01/15 07:12:20;;;;;;;15.20;9.33;;;-2.80;99.90;;;;;;4962136;28;20212;-81
2022/01/15 07:14:46;;;;;;;13.03;9.67;;;-2.80;99.90;;;;;;4965032;28;20187;-80
2022/01/15 07:17:12;;;;;;;13.20;9.57;;;-2.80;99.90;;;;;;4964335;28;20183;-81
2022/01/15 07:19:37;;;;;;;11.00;7.73;;;-2.80;99.90;;;;;;4964206;28;20671;-81
2022/01/15 07:22:05;;;;;;;10.87;7.50;;;-2.70;99.90;;;;;;4964801;28;20282;-81
2022/01/15 07:24:30;;;;;;;9.30;7.63;;;-2.90;99.90;;;;;;4957252;28;20183;-80
2022/01/15 07:26:56;;;;;;;7.60;6.57;;;-2.90;99.90;;;;;;4968178;28;20251;-80
2022/01/15 07:29:25;;;;;;;7.57;6.50;;;-3.10;99.90;;;;;;4979299;28;20221;-83
2022/01/15 07:31:52;;;;;;;8.33;6.63;;;-3.10;99.90;;;;;;4968571;28;20206;-81
2022/01/15 07:34:20;;;;;;;8.17;7.00;;;-3.20;99.90;;;;;;4964544;28;20177;-81
2022/01/15 07:36:55;;;;;;;9.17;7.23;;;-3.20;99.90;;;;;;4965176;28;20177;-80
2022/01/15 07:39:21;;;;;;;8.53;6.97;;;-3.30;99.90;;;;;;4965062;28;20228;-81
2022/01/15 07:41:47;;;;;;;7.93;6.20;;;-3.20;99.90;;;;;;4968992;28;20240;-82
2022/01/15 07:44:13;;;;;;;8.20;6.17;;;-3.20;99.90;;;;;;4969780;28;20183;-81
2022/01/15 07:46:38;;;;;;;8.43;6.37;;;-3.30;99.90;;;;;;4978472;28;20654;-80
2022/01/15 07:49:04;;;;;;;8.03;6.20;;;-3.20;99.90;;;;;;4980499;28;20204;-82
2022/01/15 07:51:30;;;;;;;10.40;7.57;;;-3.10;99.90;;;;;;4965941;28;20205;-80
2022/01/15 07:53:55;;;;;;;10.53;6.60;;;-3.00;99.90;;;;;;4971706;28;20174;-80
2022/01/15 07:56:21;;;;;;;8.53;6.47;;;-3.00;99.90;;;;;;4980711;28;20231;-81
2022/01/15 07:58:47;;;;;;;9.33;6.43;;;-3.00;99.90;;;;;;4979996;28;20208;-81
2022/01/15 08:01:13;;;;;;;9.47;6.43;;;-3.00;99.90;;;;;;4977889;28;20176;-81
2022/01/15 08:03:40;;;;;;;10.10;7.13;;;-3.00;99.90;;;;;;4963268;28;20187;-80
2022/01/15 08:06:06;;;;;;;9.57;6.90;;;-2.90;99.90;;;;;;4954952;28;20614;-78
2022/01/15 08:08:33;;;;;;;8.47;6.00;;;-2.90;99.90;;;;;;4976723;28;20289;-81
2022/01/15 08:10:59;;;;;;;9.70;6.80;;;-2.90;99.90;;;;;;4959907;28;20748;-81
2022/01/15 08:13:26;;;;;;;8.70;6.97;;;-2.80;99.90;;;;;;4956670;28;20180;-81
2022/01/15 08:15:52;;;;;;;8.17;6.60;;;-2.70;99.90;;;;;;4958733;28;20182;-80
2022/01/15 08:18:19;;;;;;;9.47;7.13;;;-2.60;99.90;;;;;;4961758;28;20689;-80
2022/01/15 08:20:45;;;;;;;10.20;7.50;;;-2.60;99.90;;;;;;4960377;28;20285;-80
2022/01/15 08:23:10;;;;;;;10.07;7.60;;;-2.50;99.90;;;;;;4974735;28;20241;-78
2022/01/15 08:25:36;;;;;;;12.00;8.10;;;-2.50;99.90;;;;;;4986794;28;20192;-79
2022/01/15 08:28:02;;;;;;;11.33;8.33;;;-2.50;99.90;;;;;;4988926;28;20246;-81
2022/01/15 08:30:27;;;;;;;13.50;9.13;;;-2.40;99.90;;;;;;4984990;28;20181;-80
2022/01/15 08:32:53;;;;;;;13.57;9.33;;;-2.40;99.90;;;;;;4984049;28;20182;-79
2022/01/15 08:35:19;;;;;;;12.73;8.83;;;-2.20;99.90;;;;;;4968570;28;20183;-81
2022/01/15 08:37:44;;;;;;;11.67;8.93;;;-2.20;99.90;;;;;;4981726;28;20227;-79
2022/01/15 08:40:13;;;;;;;15.07;9.83;;;-2.10;99.90;;;;;;4966495;28;20233;-79
2022/01/15 08:42:39;;;;;;;21.63;11.73;;;-2.00;99.90;;;;;;4984609;28;20261;-80
2022/01/15 08:45:06;;;;;;;16.13;10.83;;;-1.90;99.90;;;;;;4984870;28;20217;-79
2022/01/15 08:47:32;;;;;;;14.13;10.70;;;-1.90;99.90;;;;;;4967550;28;20584;-83
2022/01/15 08:49:58;;;;;;;15.20;11.27;;;-1.80;99.90;;;;;;4964323;28;20212;-82
2022/01/15 08:52:24;;;;;;;11.40;9.97;;;-1.70;99.90;;;;;;4993066;28;20183;-81
2022/01/15 08:54:50;;;;;;;14.13;11.10;;;-1.60;99.90;;;;;;4984472;28;20643;-81
2022/01/15 08:57:16;;;;;;;17.73;11.47;;;-1.60;99.90;;;;;;4963066;28;20198;-82
2022/01/15 08:59:42;;;;;;;21.30;13.50;;;-1.30;99.90;;;;;;4980109;28;20293;-83
2022/01/15 09:02:08;;;;;;;26.07;15.27;;;-1.40;99.90;;;;;;4969994;28;20195;-80
2022/01/15 09:04:34;;;;;;;26.57;16.03;;;-1.40;99.90;;;;;;4969704;28;20251;-82
2022/01/15 09:07:00;;;;;;;25.80;15.20;;;-1.30;99.90;;;;;;4969304;28;20214;-82
2022/01/15 09:09:26;;;;;;;26.47;15.47;;;-1.20;99.90;;;;;;4986076;28;20568;-81
2022/01/15 09:11:52;;;;;;;29.23;16.67;;;-0.50;99.90;;;;;;4969589;28;20272;-82
2022/01/15 09:14:17;;;;;;;33.07;18.40;;;-0.90;99.90;;;;;;4986053;28;20184;-82
2022/01/15 09:16:43;;;;;;;36.30;20.13;;;-0.70;99.90;;;;;;4985616;28;20199;-81
2022/01/15 09:19:09;;;;;;;38.60;21.13;;;-0.70;99.90;;;;;;4967894;28;20210;-83
2022/01/15 09:21:35;;;;;;;34.03;20.40;;;-0.70;99.90;;;;;;4985609;28;20200;-82
2022/01/15 09:24:01;;;;;;;38.33;21.87;;;-0.70;99.90;;;;;;4985804;28;20207;-82
2022/01/15 09:32:16;;;;;;;37.73;21.73;;;-0.40;99.90;;;;;;4959907;28;20584;-83
2022/01/15 09:34:41;;;;;;;37.07;22.63;;;-0.30;99.90;;;;;;4964834;28;20287;-82
2022/01/15 09:37:07;;;;;;;39.07;22.43;;;-0.20;99.90;;;;;;4983864;28;20256;-82
2022/01/15 09:39:33;;;;;;;35.47;21.13;;;-0.10;99.90;;;;;;4982442;28;20200;-82
2022/01/15 09:41:58;;;;;;;39.87;22.37;;;-0.10;99.90;;;;;;4984652;28;20188;-82
2022/01/15 09:44:25;;;;;;;35.63;21.57;;;0.00;99.90;;;;;;4964821;28;20577;-82
2022/01/15 09:46:52;;;;;;;36.50;20.80;;;0.10;99.90;;;;;;4966495;28;20211;-83
2022/01/15 09:49:23;;;;;;;33.90;21.07;;;0.20;99.90;;;;;;4982840;28;20200;-82
2022/01/15 09:51:48;;;;;;;36.93;22.77;;;0.30;99.90;;;;;;4971719;28;20241;-81
2022/01/15 09:54:18;;;;;;;39.47;23.70;;;0.30;99.90;;;;;;4961496;28;20177;-81
2022/01/15 09:56:46;;;;;;;36.73;21.63;;;0.40;99.90;;;;;;4973121;28;20235;-82
2022/01/15 09:59:13;;;;;;;38.43;21.90;;;0.50;99.90;;;;;;4973407;28;20201;-82
2022/01/15 10:01:38;;;;;;;37.93;21.23;;;0.60;99.90;;;;;;4963044;28;20184;-81
2022/01/15 10:04:04;;;;;;;32.57;21.17;;;0.70;99.90;;;;;;4958790;28;20283;-81
2022/01/15 10:06:30;;;;;;;32.47;20.17;;;0.80;99.90;;;;;;4967157;28;20176;-80
2022/01/15 10:09:09;;;;;;;37.47;21.20;;;0.90;99.90;;;;;;4969139;28;20210;-80
2022/01/15 10:11:43;;;;;;;40.60;23.47;;;0.90;99.90;;;;;;4984656;28;20192;-81
2022/01/15 10:14:31;;;;;;;38.83;23.10;;;1.10;99.90;;;;;;4977998;28;20183;-81
2022/01/15 10:16:58;;;;;;;38.40;22.00;;;1.10;99.90;;;;;;4967041;28;20183;-81
2022/01/15 10:19:27;;;;;;;41.03;24.03;;;1.20;99.90;;;;;;4986628;28;20200;-83
2022/01/15 10:22:06;;;;;;;41.80;23.37;;;1.50;99.90;;;;;;4977461;28;20235;-82
2022/01/15 10:24:32;;;;;;;39.67;24.43;;;1.60;99.90;;;;;;4979351;28;20180;-82
2022/01/15 10:27:29;;;;;;;44.17;25.30;;;1.70;99.90;;;;;;4982831;28;20182;-79
2022/01/15 10:30:15;;;;;;;43.30;24.13;;;1.90;99.90;;;;;;4968853;28;20279;-81
2022/01/15 10:33:10;;;;;;;45.80;25.27;;;2.10;99.90;;;;;;4977475;28;20207;-80
2022/01/15 10:35:37;;;;;;;43.03;25.63;;;2.30;99.90;;;;;;4975222;28;20226;-81
2022/01/15 10:38:17;;;;;;;47.30;27.83;;;2.30;99.90;;;;;;4970167;28;20206;-82
2022/01/15 10:40:47;;;;;;;43.93;26.10;;;2.40;99.90;;;;;;4969227;28;20276;-82
2022/01/15 10:43:18;;;;;;;47.67;27.87;;;2.50;99.90;;;;;;4974566;28;20178;-83
2022/01/15 10:46:01;;;;;;;47.17;28.30;;;2.60;99.90;;;;;;4970953;28;20626;-82
2022/01/15 10:48:31;;;;;;;51.03;28.87;;;2.70;99.90;;;;;;4979213;28;20195;-83
2022/01/15 10:51:01;;;;;;;45.53;29.10;;;2.90;99.90;;;;;;4978554;28;20216;-82
2022/01/15 10:53:41;;;;;;;47.90;30.03;;;3.00;99.90;;;;;;4983360;28;20185;-82
2022/01/15 10:56:09;;;;;;;54.13;31.83;;;3.10;99.90;;;;;;4983432;28;20191;-82
2022/01/15 10:58:36;;;;;;;54.70;30.67;;;3.10;99.90;;;;;;4980156;28;20200;-80
2022/01/15 11:01:03;;;;;;;46.23;29.93;;;3.20;99.90;;;;;;4980147;28;20280;-84
2022/01/15 11:03:37;;;;;;;48.43;28.87;;;3.30;99.90;;;;;;4973016;28;20729;-82
2022/01/15 11:06:03;;;;;;;52.67;30.50;;;3.40;99.90;;;;;;4967709;28;20290;-82
2022/01/15 11:08:29;;;;;;;58.97;32.17;;;3.40;99.90;;;;;;4967108;28;20562;-81
2022/01/15 11:11:04;;;;;;;48.10;28.93;;;3.50;99.90;;;;;;4977521;28;20301;-81
2022/01/15 11:13:31;;;;;;;49.13;28.73;;;3.50;99.90;;;;;;4981610;28;20178;-80
2022/01/15 11:16:12;;;;;;;46.50;28.00;;;3.80;99.90;;;;;;4975665;28;20190;-83
2022/01/15 11:18:41;;;;;;;46.97;28.90;;;3.80;99.90;;;;;;4963721;28;20315;-82
2022/01/15 11:21:13;;;;;;;45.83;28.50;;;3.90;99.90;;;;;;4975282;28;20236;-83
2022/01/15 11:23:40;;;;;;;49.93;28.67;;;3.90;99.90;;;;;;4965611;28;20184;-81
2022/01/15 11:26:11;;;;;;;44.27;27.33;;;4.00;99.90;;;;;;4975424;28;20260;-83
2022/01/15 11:28:38;;;;;;;39.67;26.40;;;4.00;99.90;;;;;;4964726;28;20215;-84
2022/01/15 11:31:07;;;;;;;41.40;26.33;;;4.20;99.90;;;;;;4966632;28;20378;-82
2022/01/15 11:33:45;;;;;;;56.30;27.60;;;4.10;99.90;;;;;;4995292;28;20207;-80
2022/01/15 11:36:37;;;;;;;38.53;25.03;;;4.30;99.90;;;;;;4984601;28;20560;-81
2022/01/15 11:39:18;;;;;;;37.40;24.60;;;4.50;99.90;;;;;;4985084;28;20294;-83
2022/01/15 11:41:55;;;;;;;41.53;26.27;;;4.60;99.90;;;;;;4993711;28;20570;-82
2022/01/15 11:44:33;;;;;;;44.87;26.43;;;4.80;99.90;;;;;;4972170;28;20178;-82
2022/01/15 11:47:25;;;;;;;42.13;24.90;;;4.90;99.90;;;;;;4976169;28;20242;-82
2022/01/15 11:49:52;;;;;;;42.03;26.47;;;5.10;99.90;;;;;;4981040;28;20207;-81
2022/01/15 11:52:19;;;;;;;42.93;25.40;;;5.10;99.90;;;;;;4979899;28;20199;-83
2022/01/15 11:54:50;;;;;;;48.33;26.73;;;5.20;99.90;;;;;;4978403;28;20194;-81
2022/01/15 11:57:25;;;;;;;48.93;28.20;;;5.00;99.90;;;;;;4980243;28;20749;-82
2022/01/15 11:59:53;;;;;;;44.43;25.47;;;5.10;99.90;;;;;;4983711;28;20196;-84
2022/01/15 12:15:28;;;;;;;39.80;25.53;;;4.90;99.90;;;;;;5620253;23;20661;-82
2022/01/15 12:17:59;;;;;;;37.20;24.67;;;4.90;99.90;;;;;;4976909;28;20242;-81
2022/01/15 12:20:26;;;;;;;37.93;25.57;;;5.40;99.90;;;;;;4961948;28;20187;-81
2022/01/15 12:23:23;;;;;;;39.70;25.03;;;5.50;99.90;;;;;;4964334;28;20183;-82
2022/01/15 12:25:51;;;;;;;42.03;25.83;;;4.80;99.90;;;;;;4962757;28;20204;-82
2022/01/15 12:28:17;;;;;;;36.73;24.80;;;4.80;99.90;;;;;;4971959;28;20184;-81
2022/01/15 12:30:50;;;;;;;34.83;24.10;;;4.80;99.90;;;;;;4956793;28;20182;-83
2022/01/15 12:33:17;;;;;;;37.70;24.40;;;4.80;99.90;;;;;;4978289;28;20169;-81
2022/01/15 12:35:51;;;;;;;39.77;25.30;;;4.70;99.90;;;;;;4962472;28;20205;-83
2022/01/15 12:38:21;;;;;;;41.37;25.47;;;4.60;99.90;;;;;;4974811;28;20176;-84
2022/01/15 12:40:53;;;;;;;41.03;25.10;;;4.60;99.90;;;;;;4960388;28;20226;-83
2022/01/15 12:43:25;;;;;;;37.97;24.40;;;4.70;99.90;;;;;;4961939;28;20176;-84
2022/01/15 12:45:57;;;;;;;38.77;24.87;;;4.70;99.90;;;;;;4970176;28;20283;-83
2022/01/15 12:48:25;;;;;;;38.90;24.47;;;4.80;99.90;;;;;;4952468;28;20229;-83
2022/01/15 12:50:54;;;;;;;39.63;24.27;;;5.00;99.90;;;;;;4962407;28;20179;-82
2022/01/15 12:53:22;;;;;;;41.20;25.93;;;4.90;99.90;;;;;;4958702;28;20178;-83
2022/01/15 12:55:48;;;;;;;38.70;25.03;;;4.90;99.90;;;;;;4956101;28;20208;-83
2022/01/15 12:58:20;;;;;;;39.60;24.67;;;5.00;99.90;;;;;;4964614;28;20197;-82
2022/01/15 13:00:46;;;;;;;40.37;24.80;;;4.90;99.90;;;;;;4945784;29;20207;-83
2022/01/15 13:03:14;;;;;;;39.33;26.37;;;4.90;99.90;;;;;;4945992;28;20191;-83
2022/01/15 13:05:43;;;;;;;36.67;25.17;;;4.90;99.90;;;;;;4962769;28;20245;-82
2022/01/15 13:08:13;;;;;;;38.70;26.20;;;5.00;99.90;;;;;;4962772;28;20177;-84
2022/01/15 13:10:52;;;;;;;38.60;24.93;;;5.00;99.90;;;;;;4963598;28;20176;-83